createdAt,value
2018-07-21T00:01:22.427Z,19.93
2018-07-21T00:06:19.948Z,16.47
2018-07-21T00:11:25.631Z,15.30
2018-07-21T00:16:23.352Z,13.50
2018-07-21T00:21:20.935Z,11.23
2018-07-21T00:26:18.439Z,11.80
2018-07-21T00:31:15.976Z,20.77
2018-07-21T00:36:13.485Z,15.57
2018-07-21T00:41:25.309Z,13.33
2018-07-21T00:46:22.962Z,17.13
2018-07-21T00:51:20.552Z,17.30
2018-07-21T00:56:18.064Z,16.50
2018-07-21T01:01:15.611Z,13.30
2018-07-21T01:06:13.144Z,13.93
2018-07-21T01:11:24.271Z,16.00
2018-07-21T01:16:22.320Z,9.93
2018-07-21T01:21:19.852Z,18.40
2018-07-21T01:26:17.447Z,24.50
2018-07-21T01:31:14.975Z,11.20
2018-07-21T01:36:12.495Z,19.67
2018-07-21T01:41:10.006Z,13.30
2018-07-21T01:46:07.543Z,12.70
2018-07-21T01:51:05.059Z,15.13
2018-07-21T01:56:02.604Z,19.33
2018-07-21T02:01:00.284Z,21.33
2018-07-21T02:05:57.806Z,16.47
2018-07-21T02:10:58.028Z,13.43
2018-07-21T02:15:55.667Z,11.23
2018-07-21T02:20:53.167Z,15.63
2018-07-21T02:25:50.680Z,16.80
2018-07-21T02:30:48.209Z,13.03
2018-07-21T02:35:45.725Z,13.67
2018-07-21T02:40:43.224Z,12.20
2018-07-21T02:45:40.771Z,10.90
2018-07-21T02:50:38.259Z,15.60
2018-07-21T02:55:35.788Z,19.13
2018-07-21T03:00:33.349Z,33.83
2018-07-21T03:05:30.916Z,9.70
2018-07-21T03:10:28.408Z,11.17
2018-07-21T03:15:26.163Z,11.57
2018-07-21T03:20:23.697Z,14.83
2018-07-21T03:25:21.219Z,12.03
2018-07-21T03:30:19.155Z,10.77
2018-07-21T03:35:16.663Z,10.93
2018-07-21T03:40:14.187Z,13.53
2018-07-21T03:45:11.735Z,12.80
2018-07-21T03:50:09.230Z,8.83
2018-07-21T03:55:06.820Z,13.77
2018-07-21T04:00:04.862Z,13.20
2018-07-21T04:05:02.377Z,11.67
2018-07-21T04:09:59.899Z,9.63
2018-07-21T04:14:57.476Z,17.83
2018-07-21T04:19:55.863Z,9.27
2018-07-21T04:24:53.648Z,12.40
2018-07-21T04:29:51.740Z,9.63
2018-07-21T04:34:49.250Z,16.90
2018-07-21T04:39:46.817Z,11.40
2018-07-21T04:44:44.360Z,8.93
2018-07-21T04:49:41.883Z,21.47
2018-07-21T04:54:39.413Z,10.17
2018-07-21T04:59:36.999Z,10.23
2018-07-21T05:04:36.480Z,22.30
2018-07-21T05:09:34.189Z,12.20
2018-07-21T05:14:31.794Z,9.93
2018-07-21T05:19:29.343Z,15.83
2018-07-21T05:24:27.065Z,11.93
2018-07-21T05:29:24.707Z,9.43
2018-07-21T05:34:22.215Z,13.20
2018-07-21T05:39:19.768Z,12.30
2018-07-21T05:44:17.317Z,12.67
2018-07-21T05:49:14.848Z,11.07
2018-07-21T05:54:12.373Z,12.23
2018-07-21T05:59:09.932Z,17.37
2018-07-21T06:04:07.429Z,11.20
2018-07-21T06:09:06.971Z,9.73
2018-07-21T06:14:04.522Z,8.97
2018-07-21T06:19:02.043Z,13.17
2018-07-21T06:23:59.549Z,11.83
2018-07-21T06:28:57.056Z,9.07
2018-07-21T06:33:54.575Z,9.80
2018-07-21T06:38:52.167Z,9.70
2018-07-21T06:43:49.720Z,10.87
2018-07-21T06:48:47.224Z,9.70
2018-07-21T06:53:44.782Z,9.73
2018-07-21T06:58:42.350Z,14.73
2018-07-21T07:03:39.901Z,8.87
2018-07-21T07:08:37.418Z,12.33
2018-07-21T07:13:34.951Z,9.83
2018-07-21T07:18:32.498Z,11.10
2018-07-21T07:23:30.032Z,14.53
2018-07-21T07:28:33.071Z,17.27
2018-07-21T07:33:36.937Z,24.23
2018-07-21T07:38:39.194Z,21.90
2018-07-21T07:43:45.752Z,15.60
2018-07-21T07:48:49.805Z,19.20
2018-07-21T07:53:50.160Z,17.90
2018-07-21T07:58:47.826Z,22.17
2018-07-21T08:03:45.380Z,19.37
2018-07-21T08:08:42.916Z,22.40
2018-07-21T08:13:40.478Z,23.87
2018-07-21T08:18:38.069Z,28.00
2018-07-21T08:23:35.624Z,31.03
2018-07-21T08:28:33.190Z,27.80
2018-07-21T08:33:30.811Z,28.53
2018-07-21T08:38:28.720Z,28.57
2018-07-21T08:43:26.312Z,28.27
2018-07-21T08:48:23.880Z,27.53
2018-07-21T08:53:22.996Z,26.90
2018-07-21T08:58:21.162Z,26.47
2018-07-21T09:03:18.695Z,26.50
2018-07-21T09:08:16.240Z,32.23
2018-07-21T09:13:13.901Z,26.90
2018-07-21T09:18:11.389Z,25.07
2018-07-21T09:23:08.944Z,23.53
2018-07-21T09:28:06.549Z,23.73
2018-07-21T09:33:04.727Z,23.07
2018-07-21T09:38:02.283Z,21.33
2018-07-21T09:42:59.837Z,19.63
2018-07-21T09:47:57.380Z,22.30
2018-07-21T09:52:55.000Z,26.97
2018-07-21T09:57:52.582Z,21.13
2018-07-21T10:02:50.100Z,22.13
2018-07-21T10:07:47.643Z,21.20
2018-07-21T10:12:45.182Z,24.47
2018-07-21T10:17:42.726Z,35.13
2018-07-21T10:22:40.238Z,28.77
2018-07-21T10:27:43.296Z,28.43
2018-07-21T10:32:40.870Z,23.40
2018-07-21T10:37:38.389Z,26.07
2018-07-21T10:42:35.928Z,31.23
2018-07-21T10:47:33.398Z,25.50
2018-07-21T10:52:30.934Z,26.60
2018-07-21T10:57:28.506Z,26.43
2018-07-21T11:02:26.009Z,37.30
2018-07-21T11:07:23.538Z,21.63
2018-07-21T11:12:21.077Z,29.50
2018-07-21T11:17:18.595Z,27.30
2018-07-21T11:22:16.111Z,24.30
2018-07-21T11:27:13.931Z,21.13
2018-07-21T11:32:11.479Z,23.93
2018-07-21T11:37:08.992Z,22.20
2018-07-21T11:42:07.924Z,19.87
2018-07-21T11:47:05.449Z,21.93
2018-07-21T11:52:03.033Z,18.00
2018-07-21T11:57:01.898Z,27.87
2018-07-21T12:01:59.449Z,16.90
2018-07-21T12:06:57.024Z,21.93
2018-07-21T12:11:56.127Z,22.27
2018-07-21T12:16:53.660Z,21.63
2018-07-21T12:21:57.933Z,19.80
2018-07-21T12:26:56.001Z,27.93
2018-07-21T12:31:53.519Z,21.20
2018-07-21T12:36:51.022Z,20.57
2018-07-21T12:41:49.947Z,16.00
2018-07-21T12:46:47.510Z,20.43
2018-07-21T12:51:45.029Z,24.07
2018-07-21T12:56:42.564Z,23.17
2018-07-21T13:01:40.215Z,18.77
2018-07-21T13:06:37.763Z,21.23
2018-07-21T13:11:39.773Z,18.47
2018-07-21T13:16:37.427Z,22.23
2018-07-21T13:21:35.058Z,20.00
2018-07-21T13:26:33.067Z,19.43
2018-07-21T13:31:30.598Z,20.23
2018-07-21T13:36:28.978Z,15.10
2018-07-21T13:41:33.553Z,21.03
2018-07-21T13:46:31.123Z,18.37
2018-07-21T13:51:29.713Z,15.80
2018-07-21T13:56:28.096Z,12.33
2018-07-21T14:01:25.674Z,14.50
2018-07-21T14:06:23.213Z,19.90
2018-07-21T14:11:33.341Z,12.33
2018-07-21T14:16:31.073Z,15.70
2018-07-21T14:21:28.676Z,20.40
2018-07-21T14:26:26.238Z,13.00
2018-07-21T14:31:23.796Z,21.50
2018-07-21T14:36:21.523Z,14.23
2018-07-21T14:41:27.024Z,17.43
2018-07-21T14:46:24.699Z,16.17
2018-07-21T14:51:22.212Z,13.20
2018-07-21T14:56:19.753Z,16.30
2018-07-21T15:01:17.372Z,24.97
2018-07-21T15:06:14.999Z,16.53
2018-07-21T15:11:21.887Z,18.73
2018-07-21T15:16:19.781Z,13.20
2018-07-21T15:21:17.328Z,20.13
2018-07-21T15:26:14.860Z,15.83
2018-07-21T15:31:12.542Z,21.93
2018-07-21T15:36:10.059Z,16.03
2018-07-21T15:41:07.574Z,17.37
2018-07-21T15:46:05.538Z,17.90
2018-07-21T15:51:03.101Z,18.43
2018-07-21T15:56:00.648Z,20.97
2018-07-21T16:00:58.224Z,17.77
2018-07-21T16:05:55.765Z,15.30
2018-07-21T16:10:53.338Z,18.30
2018-07-21T16:15:50.889Z,15.47
2018-07-21T16:20:48.443Z,22.70
2018-07-21T16:25:45.983Z,17.07
2018-07-21T16:30:43.512Z,25.60
2018-07-21T16:35:41.042Z,15.47
2018-07-21T16:40:38.623Z,18.33
2018-07-21T16:45:36.196Z,19.43
2018-07-21T16:50:33.724Z,26.30
2018-07-21T16:55:31.236Z,17.13
2018-07-21T17:00:28.843Z,17.83
2018-07-21T17:05:26.332Z,20.50
2018-07-21T17:10:23.833Z,14.03
2018-07-21T17:15:21.346Z,16.33
2018-07-21T17:20:18.848Z,23.23
2018-07-21T17:25:16.345Z,19.23
2018-07-21T17:30:18.434Z,24.20
2018-07-21T17:35:16.727Z,18.43
2018-07-21T17:40:14.977Z,14.80
2018-07-21T17:45:13.366Z,24.00
2018-07-21T17:50:11.870Z,19.13
2018-07-21T17:55:10.067Z,20.07
2018-07-21T18:00:08.417Z,10.83
2018-07-21T18:05:06.687Z,14.97
2018-07-21T18:10:05.344Z,13.27
2018-07-21T18:15:04.448Z,21.07
2018-07-21T18:20:04.814Z,13.80
2018-07-21T18:25:06.779Z,11.17
2018-07-21T18:30:07.016Z,16.90
2018-07-21T18:35:08.761Z,14.57
2018-07-21T18:40:11.561Z,15.03
2018-07-21T18:45:12.973Z,16.63
2018-07-21T18:50:12.372Z,15.13
2018-07-21T18:55:13.880Z,16.60
2018-07-21T19:00:16.042Z,21.77
2018-07-21T19:05:17.523Z,17.70
2018-07-21T19:10:19.217Z,19.03
2018-07-21T19:15:24.995Z,18.47
2018-07-21T19:20:31.045Z,17.30
2018-07-21T19:25:37.385Z,18.97
2018-07-21T19:30:35.828Z,16.53
2018-07-21T19:35:34.722Z,18.90
2018-07-21T19:40:33.374Z,19.77
2018-07-21T19:45:31.638Z,18.67
2018-07-21T19:50:30.310Z,15.77
2018-07-21T19:55:28.564Z,14.53
2018-07-21T20:00:27.070Z,15.80
2018-07-21T20:05:25.314Z,19.40
2018-07-21T20:10:23.400Z,18.83
2018-07-21T20:15:21.422Z,18.20
2018-07-21T20:20:19.496Z,26.50
2018-07-21T20:25:17.258Z,20.63
2018-07-21T20:30:15.865Z,20.93
2018-07-21T20:35:13.861Z,23.37
2018-07-21T20:40:11.996Z,23.93
2018-07-21T20:45:09.975Z,25.97
2018-07-21T20:50:08.092Z,18.70
2018-07-21T20:55:05.995Z,23.90
2018-07-21T21:00:04.590Z,24.87
2018-07-21T21:05:02.975Z,22.70
2018-07-21T21:10:01.030Z,26.77
2018-07-21T21:14:59.160Z,26.13
2018-07-21T21:19:57.405Z,30.33
2018-07-21T21:24:55.360Z,27.20
2018-07-21T21:29:53.445Z,24.40
2018-07-21T21:34:51.561Z,30.07
2018-07-21T21:39:49.859Z,29.50
2018-07-21T21:44:48.248Z,32.43
2018-07-21T21:49:46.409Z,32.33
2018-07-21T21:54:44.688Z,28.33
2018-07-21T21:59:43.021Z,35.87
2018-07-21T22:05:44.120Z,26.17
2018-07-21T22:10:42.253Z,29.57
2018-07-21T22:15:40.501Z,25.60
2018-07-21T22:20:38.619Z,27.60
2018-07-21T22:25:37.200Z,27.10
2018-07-21T22:30:35.686Z,27.13
2018-07-21T22:35:33.211Z,24.80
2018-07-21T22:40:30.728Z,26.33
2018-07-21T22:45:28.762Z,25.93
2018-07-21T22:50:26.288Z,27.43
2018-07-21T22:55:23.754Z,27.67
2018-07-21T23:00:21.284Z,29.40
2018-07-21T23:05:18.770Z,28.70
2018-07-21T23:10:16.276Z,29.23
2018-07-21T23:15:13.791Z,33.50
2018-07-21T23:20:11.291Z,27.77
2018-07-21T23:25:08.829Z,31.17
2018-07-21T23:30:06.333Z,26.60
2018-07-21T23:35:03.981Z,29.80
2018-07-21T23:40:01.475Z,31.70
2018-07-21T23:44:58.945Z,30.90
2018-07-21T23:49:56.432Z,32.63
2018-07-21T23:54:53.953Z,31.83
2018-07-21T23:59:51.470Z,30.47
